Time;durP1;ratioP1;P1;durP2;ratioP2;P2;SDS_P1;SDS_P2;PMS_P1;PMS_P2;Temp;Humidity;BMP_temperature;BMP_pressure;BME280_temperature;BME280_humidity;BME280_pressure;Samples;Min_cycle;Max_cycle;Signal;HPM_P1;HPM_P2
2024/03/10 00:01:26;;;;;;;2.40;0.80;;;10.10;99.90;;;;;;5046422;28;20805;-55
2024/03/10 00:03:53;;;;;;;1.20;0.70;;;10.10;99.90;;;;;;5045743;28;20522;-53
2024/03/10 00:06:22;;;;;;;1.17;0.70;;;10.10;99.90;;;;;;5047641;28;20456;-56
2024/03/10 00:08:49;;;;;;;1.70;0.80;;;10.10;99.90;;;;;;5051146;28;20528;-55
2024/03/10 00:11:18;;;;;;;1.40;0.70;;;10.10;99.90;;;;;;5049673;28;20437;-54
2024/03/10 00:13:45;;;;;;;1.15;0.70;;;10.10;99.90;;;;;;5046727;28;20449;-56
2024/03/10 00:16:12;;;;;;;1.00;0.70;;;10.20;99.90;;;;;;5046332;28;20507;-53
2024/03/10 00:18:39;;;;;;;1.50;0.80;;;10.20;99.90;;;;;;5046974;28;20438;-55
2024/03/10 00:21:07;;;;;;;1.40;0.80;;;10.20;99.90;;;;;;5045591;28;20437;-54
2024/03/10 00:23:34;;;;;;;1.98;0.80;;;10.30;99.90;;;;;;5046831;28;20918;-55
2024/03/10 00:26:05;;;;;;;1.50;0.70;;;10.20;99.90;;;;;;5047894;28;20882;-55
2024/03/10 00:28:34;;;;;;;1.40;0.70;;;10.20;99.90;;;;;;5047178;28;20501;-57
2024/03/10 00:31:03;;;;;;;1.50;0.70;;;10.20;99.90;;;;;;5051313;28;20433;-54
2024/03/10 00:33:30;;;;;;;1.50;0.63;;;10.20;99.90;;;;;;5047460;28;20863;-52
2024/03/10 00:35:57;;;;;;;1.20;0.70;;;10.20;99.90;;;;;;5044707;28;20900;-54
2024/03/10 00:38:24;;;;;;;1.30;0.60;;;10.20;99.90;;;;;;5044328;28;20435;-55
2024/03/10 00:40:51;;;;;;;1.30;0.70;;;10.20;99.90;;;;;;5045698;28;20521;-55
2024/03/10 00:43:18;;;;;;;1.25;0.70;;;10.20;99.90;;;;;;5045764;28;20487;-54
2024/03/10 00:45:46;;;;;;;1.20;0.70;;;10.10;99.90;;;;;;5043415;28;20861;-53
2024/03/10 00:48:13;;;;;;;1.48;0.70;;;10.10;99.90;;;;;;5045242;28;20492;-54
2024/03/10 00:50:40;;;;;;;1.20;0.60;;;10.10;99.90;;;;;;5047032;28;20457;-55
2024/03/10 00:53:07;;;;;;;1.20;0.60;;;10.20;99.90;;;;;;5045939;28;20501;-54
2024/03/10 00:55:34;;;;;;;1.30;0.60;;;10.30;99.90;;;;;;5046675;28;20483;-56
2024/03/10 00:58:01;;;;;;;1.40;0.73;;;10.30;99.90;;;;;;5048050;28;20512;-54
2024/03/10 01:00:28;;;;;;;1.20;0.60;;;10.20;99.90;;;;;;5044749;28;20524;-55
2024/03/10 01:02:57;;;;;;;1.42;0.77;;;10.20;99.90;;;;;;5045161;28;20437;-54
2024/03/10 01:05:24;;;;;;;1.20;0.70;;;10.10;99.90;;;;;;5044560;28;20514;-53
2024/03/10 01:07:51;;;;;;;1.70;0.80;;;10.10;99.90;;;;;;5046163;28;20433;-54
2024/03/10 01:10:18;;;;;;;1.60;0.80;;;10.10;99.90;;;;;;5045738;28;20449;-54
2024/03/10 01:12:44;;;;;;;1.70;0.90;;;10.10;99.90;;;;;;5044560;28;20473;-53
2024/03/10 01:15:11;;;;;;;2.03;0.80;;;10.10;99.90;;;;;;5046315;28;20777;-55
2024/03/10 01:17:38;;;;;;;1.90;0.80;;;10.20;99.90;;;;;;5046181;28;20483;-53
2024/03/10 01:20:08;;;;;;;1.70;0.70;;;10.20;99.90;;;;;;5044236;28;20500;-56
2024/03/10 01:22:35;;;;;;;1.80;0.70;;;10.10;99.90;;;;;;5046168;28;20441;-55
2024/03/10 01:25:02;;;;;;;1.13;0.63;;;10.10;99.90;;;;;;5046527;28;20414;-52
2024/03/10 01:27:28;;;;;;;1.80;0.70;;;10.10;99.90;;;;;;5045173;28;20772;-50
2024/03/10 01:29:55;;;;;;;1.50;0.70;;;10.20;99.90;;;;;;5045665;28;20757;-54
2024/03/10 01:32:23;;;;;;;1.00;0.70;;;10.20;99.90;;;;;;5048048;28;20449;-51
2024/03/10 01:34:50;;;;;;;1.00;0.60;;;10.20;99.90;;;;;;5045815;28;20442;-52
2024/03/10 01:37:18;;;;;;;1.10;0.60;;;10.30;99.90;;;;;;5044301;28;20462;-52
2024/03/10 01:39:45;;;;;;;0.90;0.60;;;10.20;99.90;;;;;;5046662;28;20448;-51
2024/03/10 01:42:12;;;;;;;1.40;0.70;;;10.20;99.90;;;;;;5046122;28;20501;-51
2024/03/10 01:44:39;;;;;;;1.37;0.70;;;10.20;99.90;;;;;;5045517;28;20530;-51
2024/03/10 01:47:06;;;;;;;1.40;0.68;;;10.20;99.90;;;;;;5045314;28;20529;-52
2024/03/10 01:49:34;;;;;;;1.90;0.77;;;10.10;99.90;;;;;;5044985;28;20515;-52
2024/03/10 01:52:02;;;;;;;1.20;0.65;;;10.10;99.90;;;;;;5046657;28;20421;-54
2024/03/10 01:54:34;;;;;;;1.38;0.70;;;10.10;99.90;;;;;;5045076;28;20439;-51
2024/03/10 01:57:03;;;;;;;1.20;0.70;;;10.20;99.90;;;;;;5045389;28;20437;-50
2024/03/10 01:59:31;;;;;;;1.20;0.67;;;10.30;99.90;;;;;;5045885;28;20441;-55
2024/03/10 02:01:59;;;;;;;1.30;0.80;;;10.30;99.90;;;;;;5044318;28;20447;-52
2024/03/10 02:04:27;;;;;;;1.30;0.70;;;10.40;99.90;;;;;;5046194;28;20846;-52
2024/03/10 02:06:55;;;;;;;1.80;0.80;;;10.30;99.90;;;;;;5043679;28;20841;-54
2024/03/10 02:09:22;;;;;;;1.40;0.70;;;10.30;99.90;;;;;;5045808;28;20462;-53
2024/03/10 02:11:50;;;;;;;2.20;0.90;;;10.20;99.90;;;;;;5044919;28;20512;-50
2024/03/10 02:14:17;;;;;;;1.80;0.80;;;10.20;99.90;;;;;;5043966;28;20474;-49
2024/03/10 02:16:44;;;;;;;1.90;0.70;;;10.20;99.90;;;;;;5044636;28;20839;-54
2024/03/10 02:19:13;;;;;;;1.67;0.80;;;10.10;99.90;;;;;;5045200;28;20547;-53
2024/03/10 02:21:39;;;;;;;2.60;0.90;;;10.10;99.90;;;;;;5046471;28;20417;-52
2024/03/10 02:24:16;;;;;;;1.40;0.80;;;10.00;99.90;;;;;;5045300;28;20518;-50
2024/03/10 02:26:46;;;;;;;1.60;0.90;;;10.10;99.90;;;;;;5050585;28;20838;-54
2024/03/10 02:29:18;;;;;;;1.40;0.80;;;10.10;99.90;;;;;;5048943;28;20521;-52
2024/03/10 02:48:14;;;;;;;1.20;0.60;;;10.10;99.90;;;;;;5049102;28;20416;-51
2024/03/10 02:50:41;;;;;;;1.70;0.70;;;10.10;99.90;;;;;;5049467;28;20483;-56
2024/03/10 02:53:09;;;;;;;3.70;0.80;;;10.10;99.90;;;;;;5048307;28;20510;-55
2024/03/10 02:55:37;;;;;;;1.33;0.60;;;10.10;99.90;;;;;;5047575;28;20449;-55
2024/03/10 02:58:07;;;;;;;1.40;0.70;;;10.20;99.90;;;;;;5049379;28;20483;-50
2024/03/10 03:00:35;;;;;;;1.50;0.80;;;10.10;99.90;;;;;;5048607;28;20893;-56
2024/03/10 03:03:04;;;;;;;1.20;0.70;;;10.00;99.90;;;;;;5049334;28;20435;-52
2024/03/10 03:05:31;;;;;;;1.80;0.70;;;10.00;99.90;;;;;;5047080;28;20557;-56
2024/03/10 03:07:59;;;;;;;1.10;0.70;;;10.00;99.90;;;;;;5053560;28;20516;-52
2024/03/10 03:10:26;;;;;;;1.20;0.60;;;10.00;99.90;;;;;;5048115;28;20815;-56
2024/03/10 03:12:54;;;;;;;1.70;0.80;;;10.00;99.90;;;;;;5050849;28;20515;-53
2024/03/10 03:15:22;;;;;;;1.20;0.80;;;10.00;99.90;;;;;;5048751;28;20445;-52
2024/03/10 03:17:49;;;;;;;2.00;0.80;;;9.90;99.90;;;;;;5046927;28;20438;-53
2024/03/10 03:20:16;;;;;;;1.27;0.70;;;9.90;1.00;;;;;;5049451;28;20468;-52
2024/03/10 03:22:44;;;;;;;1.50;0.80;;;9.90;99.90;;;;;;5049011;28;20504;-54
2024/03/10 03:25:14;;;;;;;2.00;0.70;;;9.80;99.90;;;;;;5048203;28;20516;-54
2024/03/10 03:27:42;;;;;;;1.60;0.70;;;9.70;1.00;;;;;;5047248;28;20834;-55
2024/03/10 03:30:09;;;;;;;1.35;0.60;;;9.60;1.00;;;;;;5047308;28;20726;-55
2024/03/10 03:32:37;;;;;;;1.40;0.70;;;9.60;1.00;;;;;;5049295;28;20849;-50
2024/03/10 03:35:04;;;;;;;1.10;0.70;;;9.70;1.00;;;;;;5048590;28;20433;-51
2024/03/10 03:37:31;;;;;;;1.10;0.70;;;9.80;1.00;;;;;;5046260;28;20506;-53
2024/03/10 03:39:59;;;;;;;1.00;0.70;;;9.90;1.00;;;;;;5047755;28;20795;-53
2024/03/10 03:42:27;;;;;;;1.27;0.70;;;9.80;1.00;;;;;;5046830;28;20529;-51
2024/03/10 03:44:54;;;;;;;1.20;0.80;;;9.80;99.90;;;;;;5047582;28;20840;-54
2024/03/10 03:47:21;;;;;;;1.60;0.70;;;9.80;99.90;;;;;;5029447;28;20489;-55
2024/03/10 03:49:49;;;;;;;1.90;0.70;;;9.80;1.00;;;;;;5028041;28;20510;-56
2024/03/10 03:52:18;;;;;;;1.40;0.70;;;9.80;99.90;;;;;;5027431;28;20460;-55
2024/03/10 03:54:45;;;;;;;1.50;0.80;;;9.80;1.00;;;;;;5026311;28;20449;-55
2024/03/10 03:57:12;;;;;;;1.33;0.70;;;9.80;99.90;;;;;;5024695;28;20472;-56
2024/03/10 03:59:39;;;;;;;1.60;0.80;;;9.80;1.00;;;;;;5026804;28;20511;-56
2024/03/10 04:02:06;;;;;;;1.20;0.70;;;9.80;1.00;;;;;;5028872;28;20887;-55
2024/03/10 04:04:32;;;;;;;1.10;0.70;;;9.80;99.90;;;;;;5027032;28;20526;-56
2024/03/10 04:07:01;;;;;;;1.50;0.70;;;10.00;99.90;;;;;;5027499;28;20499;-55
2024/03/10 04:09:28;;;;;;;1.35;0.80;;;10.00;99.90;;;;;;5027183;28;20493;-54
2024/03/10 04:11:56;;;;;;;1.30;0.70;;;10.00;99.90;;;;;;5026864;28;20515;-56
2024/03/10 04:14:26;;;;;;;1.50;0.70;;;10.00;99.90;;;;;;5025435;28;20801;-55
2024/03/10 04:16:53;;;;;;;3.50;0.80;;;10.00;99.90;;;;;;5027066;28;20442;-54
2024/03/10 04:19:20;;;;;;;1.30;0.70;;;9.80;99.90;;;;;;5027925;28;20429;-51
2024/03/10 04:21:48;;;;;;;1.40;0.80;;;9.60;1.00;;;;;;5026925;28;20499;-54
2024/03/10 04:24:16;;;;;;;2.83;0.80;;;9.60;99.90;;;;;;5026093;28;20428;-51
2024/03/10 04:26:43;;;;;;;1.20;0.73;;;9.50;1.00;;;;;;5025103;28;20452;-52
2024/03/10 04:29:11;;;;;;;1.30;0.70;;;9.50;1.00;;;;;;5027826;28;20466;-54
2024/03/10 04:31:38;;;;;;;2.75;0.80;;;9.40;1.00;;;;;;5032466;28;20431;-54
2024/03/10 04:34:05;;;;;;;1.50;0.80;;;9.40;1.00;;;;;;5037721;28;20422;-55
2024/03/10 04:36:35;;;;;;;1.10;0.70;;;9.40;1.00;;;;;;5036640;28;20902;-55
2024/03/10 04:39:03;;;;;;;1.00;0.70;;;9.50;1.00;;;;;;5037166;28;20429;-56
2024/03/10 04:41:31;;;;;;;1.55;0.80;;;9.60;1.00;;;;;;5035730;28;20808;-54
2024/03/10 04:43:58;;;;;;;1.60;0.75;;;9.70;1.00;;;;;;5017735;28;20464;-53
2024/03/10 04:46:27;;;;;;;1.30;0.70;;;9.70;1.00;;;;;;5017187;28;20527;-55
2024/03/10 04:48:57;;;;;;;1.13;0.70;;;9.70;1.00;;;;;;5025666;28;20441;-53
2024/03/10 04:51:24;;;;;;;1.20;0.70;;;9.80;99.90;;;;;;5037100;28;20813;-55
2024/03/10 04:53:51;;;;;;;1.40;0.70;;;9.90;99.90;;;;;;5036968;28;20759;-54
2024/03/10 04:56:18;;;;;;;1.70;0.70;;;9.90;99.90;;;;;;5036866;28;20533;-53
2024/03/10 04:58:46;;;;;;;1.48;0.80;;;9.90;99.90;;;;;;5036776;28;20750;-55
2024/03/10 05:01:16;;;;;;;1.20;0.70;;;9.80;99.90;;;;;;5036643;28;20453;-49
2024/03/10 05:03:43;;;;;;;1.20;0.80;;;9.60;99.90;;;;;;5036672;28;20553;-49
2024/03/10 05:06:10;;;;;;;1.67;0.70;;;9.50;1.00;;;;;;5036509;28;20859;-51
2024/03/10 05:08:38;;;;;;;1.00;0.70;;;9.50;99.90;;;;;;5036483;28;20541;-49
2024/03/10 05:11:04;;;;;;;1.00;0.70;;;9.40;1.00;;;;;;5036612;28;20428;-53
2024/03/10 05:13:34;;;;;;;1.10;0.60;;;9.50;1.00;;;;;;5036908;28;20425;-53
2024/03/10 05:16:03;;;;;;;1.52;0.70;;;9.60;99.90;;;;;;5036250;28;20533;-53
2024/03/10 05:18:31;;;;;;;1.10;0.70;;;9.70;99.90;;;;;;5036211;28;20427;-54
2024/03/10 05:20:58;;;;;;;1.30;0.60;;;9.70;99.90;;;;;;5035839;28;20636;-52
2024/03/10 05:23:25;;;;;;;1.63;0.70;;;9.60;99.90;;;;;;5036136;28;20502;-55
2024/03/10 05:25:52;;;;;;;1.33;0.70;;;9.50;99.90;;;;;;5036076;28;20423;-51
2024/03/10 05:28:19;;;;;;;0.80;0.60;;;9.40;99.90;;;;;;5035454;28;20431;-51
2024/03/10 05:30:46;;;;;;;1.00;0.50;;;9.40;99.90;;;;;;5035358;28;20525;-55
2024/03/10 05:33:14;;;;;;;1.48;0.70;;;9.30;1.00;;;;;;5036233;28;20522;-55
2024/03/10 05:35:41;;;;;;;1.20;0.70;;;9.30;99.90;;;;;;5036439;28;20501;-55
2024/03/10 05:38:08;;;;;;;0.90;0.52;;;9.40;1.00;;;;;;5036831;28;20521;-51
2024/03/10 05:40:35;;;;;;;1.00;0.60;;;9.40;1.00;;;;;;5036516;28;20427;-53
2024/03/10 05:43:02;;;;;;;1.50;0.60;;;9.40;1.00;;;;;;5035935;28;20434;-51
2024/03/10 05:45:30;;;;;;;1.30;0.60;;;9.50;99.90;;;;;;5023263;28;20433;-55
2024/03/10 05:47:57;;;;;;;2.07;0.60;;;9.40;99.90;;;;;;5056094;28;20417;-49
2024/03/10 05:50:26;;;;;;;0.90;0.50;;;9.20;99.90;;;;;;5055888;28;20421;-52
2024/03/10 05:52:53;;;;;;;1.15;0.70;;;9.20;1.00;;;;;;5055546;28;20425;-52
2024/03/10 05:55:20;;;;;;;1.05;0.60;;;9.40;1.00;;;;;;5054606;28;20441;-49
2024/03/10 05:57:47;;;;;;;0.80;0.60;;;9.50;1.00;;;;;;5051234;28;20433;-52
2024/03/10 06:00:17;;;;;;;1.23;0.60;;;9.40;99.90;;;;;;5056336;28;20460;-50
2024/03/10 06:02:45;;;;;;;1.70;0.57;;;9.40;99.90;;;;;;5059781;28;20487;-52
2024/03/10 06:05:13;;;;;;;1.00;0.60;;;9.40;99.90;;;;;;5059874;28;20440;-53
2024/03/10 06:07:43;;;;;;;1.20;0.60;;;9.30;99.90;;;;;;5059780;28;20436;-54
2024/03/10 06:10:11;;;;;;;1.00;0.50;;;9.30;1.00;;;;;;5058906;28;20432;-50
2024/03/10 06:12:39;;;;;;;0.80;0.57;;;9.30;1.00;;;;;;5059862;28;20511;-50
2024/03/10 06:15:10;;;;;;;1.70;0.60;;;9.20;1.00;;;;;;5059792;28;20449;-52
2024/03/10 06:17:40;;;;;;;1.42;0.70;;;9.00;1.00;;;;;;5059874;28;20726;-53
2024/03/10 06:25:38;;;;;;;1.50;0.60;;;9.00;1.00;;;;;;5038884;28;20565;-52
2024/03/10 06:28:06;;;;;;;1.33;0.60;;;9.10;1.00;;;;;;5039453;28;20513;-55
2024/03/10 06:30:33;;;;;;;1.00;0.60;;;9.10;1.00;;;;;;5039439;28;20517;-55
2024/03/10 06:33:00;;;;;;;1.00;0.60;;;9.20;1.00;;;;;;5041735;28;20423;-55
2024/03/10 06:35:26;;;;;;;1.52;0.60;;;9.40;1.00;;;;;;5058316;28;20512;-55
2024/03/10 06:37:56;;;;;;;0.90;0.60;;;9.40;1.00;;;;;;5059034;28;20528;-54
2024/03/10 06:40:22;;;;;;;1.20;0.70;;;9.50;1.00;;;;;;5039007;28;20430;-56
2024/03/10 06:42:50;;;;;;;1.00;0.60;;;9.50;99.90;;;;;;5039285;28;20427;-50
2024/03/10 06:45:17;;;;;;;1.10;0.70;;;9.40;99.90;;;;;;5037803;28;20496;-53
2024/03/10 06:47:44;;;;;;;1.10;0.70;;;9.30;99.90;;;;;;5038687;28;20745;-49
2024/03/10 06:50:11;;;;;;;1.58;0.50;;;9.20;99.90;;;;;;5039343;28;20438;-51
2024/03/10 06:52:38;;;;;;;1.00;0.60;;;9.10;1.00;;;;;;5038776;28;20431;-55
2024/03/10 06:55:08;;;;;;;0.97;0.60;;;9.20;1.00;;;;;;5038903;28;20485;-55
2024/03/10 06:57:35;;;;;;;1.20;0.60;;;9.40;1.00;;;;;;5039081;28;20485;-54
2024/03/10 07:00:03;;;;;;;0.93;0.60;;;9.40;1.00;;;;;;5055180;28;20425;-51
2024/03/10 07:02:30;;;;;;;1.00;0.60;;;9.40;1.00;;;;;;5058689;28;20848;-52
2024/03/10 07:05:00;;;;;;;1.27;0.60;;;9.50;1.00;;;;;;5057835;28;20429;-53
2024/03/10 07:07:27;;;;;;;1.10;0.50;;;9.40;1.00;;;;;;5058222;28;20432;-53
2024/03/10 07:09:54;;;;;;;1.27;0.73;;;9.50;1.00;;;;;;5057090;28;20475;-53
2024/03/10 07:12:23;;;;;;;1.48;0.70;;;9.50;99.90;;;;;;5057995;28;20516;-52
2024/03/10 07:14:50;;;;;;;0.90;0.60;;;9.50;1.00;;;;;;5058456;28;20432;-54
2024/03/10 07:17:17;;;;;;;1.20;0.70;;;9.60;99.90;;;;;;5058775;28;20527;-57
2024/03/10 07:19:45;;;;;;;1.80;0.70;;;9.70;1.00;;;;;;5059120;28;20452;-55
2024/03/10 07:22:12;;;;;;;1.40;0.70;;;9.60;1.00;;;;;;5058648;28;20429;-55
2024/03/10 07:24:39;;;;;;;1.00;0.70;;;9.70;99.90;;;;;;5050797;28;20560;-52
2024/03/10 07:27:06;;;;;;;2.05;0.70;;;9.90;99.90;;;;;;5058659;28;20475;-53
2024/03/10 07:29:34;;;;;;;2.00;0.70;;;9.90;99.90;;;;;;5057896;28;20436;-53
2024/03/10 07:32:00;;;;;;;1.30;0.80;;;10.00;99.90;;;;;;5058211;28;20456;-56
2024/03/10 07:34:27;;;;;;;1.23;0.80;;;10.00;99.90;;;;;;5058458;28;20764;-56
2024/03/10 07:36:54;;;;;;;1.50;0.80;;;10.00;99.90;;;;;;5058050;28;20528;-55
2024/03/10 07:39:22;;;;;;;1.20;0.70;;;9.90;99.90;;;;;;5051351;28;20441;-55
2024/03/10 07:41:49;;;;;;;1.40;0.60;;;10.00;99.90;;;;;;5057104;28;20429;-56
2024/03/10 07:44:16;;;;;;;0.90;0.60;;;10.10;99.90;;;;;;5056691;28;20424;-54
2024/03/10 07:46:45;;;;;;;1.30;0.60;;;10.20;99.90;;;;;;5057183;28;20435;-53
2024/03/10 07:49:12;;;;;;;1.00;0.60;;;10.30;99.90;;;;;;5057308;28;20475;-51
2024/03/10 07:51:39;;;;;;;1.10;0.60;;;10.40;99.90;;;;;;5057550;28;20469;-53
2024/03/10 07:54:06;;;;;;;1.20;0.70;;;10.50;89.50;;;;;;5057900;28;20799;-52
2024/03/10 07:56:33;;;;;;;1.60;0.60;;;10.30;1.00;;;;;;5057867;28;20512;-54
2024/03/10 07:59:00;;;;;;;0.80;0.60;;;10.10;1.00;;;;;;5057768;28;20774;-52
2024/03/10 08:01:27;;;;;;;1.10;0.50;;;9.90;9.90;;;;;;5058131;28;20457;-55
2024/03/10 08:03:55;;;;;;;0.90;0.57;;;10.10;59.20;;;;;;5053889;28;20495;-53
2024/03/10 08:06:22;;;;;;;1.10;0.60;;;10.30;57.60;;;;;;5054037;28;20436;-55
2024/03/10 08:08:52;;;;;;;1.05;0.60;;;10.50;1.00;;;;;;5053537;28;20435;-49
2024/03/10 08:11:19;;;;;;;0.90;0.60;;;10.40;1.00;;;;;;5055595;28;20745;-54
2024/03/10 08:13:45;;;;;;;1.20;0.63;;;10.50;14.90;;;;;;5057284;28;20429;-50
2024/03/10 08:16:13;;;;;;;1.10;0.70;;;10.70;17.80;;;;;;5057684;28;20572;-54
2024/03/10 08:18:40;;;;;;;0.93;0.60;;;10.90;8.50;;;;;;5054681;28;20793;-51
2024/03/10 08:21:10;;;;;;;0.90;0.50;;;11.10;1.00;;;;;;5053921;28;20449;-56
2024/03/10 08:23:37;;;;;;;1.10;0.60;;;11.10;1.00;;;;;;5054171;28;20413;-50
2024/03/10 08:26:04;;;;;;;1.00;0.52;;;11.10;1.00;;;;;;5055683;28;20428;-53
2024/03/10 08:28:31;;;;;;;0.77;0.55;;;11.00;1.00;;;;;;5051920;28;20464;-54
2024/03/10 08:30:58;;;;;;;0.95;0.50;;;11.00;1.00;;;;;;5056680;28;20813;-55
2024/03/10 08:33:25;;;;;;;1.00;0.70;;;10.80;1.00;;;;;;5056643;28;20744;-52
2024/03/10 08:35:53;;;;;;;0.90;0.60;;;10.70;1.00;;;;;;5054517;28;20524;-55
2024/03/10 08:38:21;;;;;;;1.58;0.70;;;10.70;1.00;;;;;;5054966;28;20535;-53
2024/03/10 08:40:48;;;;;;;1.02;0.60;;;10.90;1.00;;;;;;5054990;28;20527;-54
2024/03/10 08:43:15;;;;;;;1.40;0.60;;;11.10;1.00;;;;;;5056376;28;20520;-55
2024/03/10 08:45:42;;;;;;;0.90;0.60;;;11.10;1.00;;;;;;5054496;28;20439;-56
2024/03/10 08:48:10;;;;;;;1.80;0.60;;;11.20;1.00;;;;;;5051677;28;20712;-55
2024/03/10 08:50:37;;;;;;;0.82;0.50;;;11.40;1.00;;;;;;5054994;28;20428;-55
2024/03/10 08:53:05;;;;;;;0.90;0.50;;;11.40;1.00;;;;;;5058783;28;20427;-55
2024/03/10 08:55:35;;;;;;;1.00;0.60;;;11.50;1.00;;;;;;5076764;28;20697;-54
2024/03/10 08:58:03;;;;;;;0.90;0.50;;;11.60;1.00;;;;;;5056443;28;20430;-51
2024/03/10 09:00:32;;;;;;;1.30;0.50;;;11.80;1.00;;;;;;5049804;28;20443;-52
2024/03/10 09:02:59;;;;;;;1.90;0.60;;;11.80;1.00;;;;;;5054430;28;20425;-50
2024/03/10 09:05:26;;;;;;;0.70;0.40;;;11.70;1.00;;;;;;5053417;28;20514;-54
2024/03/10 09:07:55;;;;;;;1.10;0.50;;;11.80;1.00;;;;;;5036150;28;20526;-55
2024/03/10 09:10:23;;;;;;;0.90;0.50;;;11.90;1.00;;;;;;5050074;28;20495;-56
2024/03/10 09:12:51;;;;;;;1.05;0.50;;;11.80;1.00;;;;;;5053735;28;20432;-56
2024/03/10 09:15:19;;;;;;;0.70;0.40;;;12.00;1.00;;;;;;5044254;28;20433;-56
2024/03/10 09:17:46;;;;;;;0.83;0.40;;;12.10;1.00;;;;;;5054538;28;20850;-56
2024/03/10 09:20:13;;;;;;;0.82;0.50;;;12.00;1.00;;;;;;5044435;28;20433;-53
2024/03/10 09:22:41;;;;;;;0.80;0.50;;;12.20;1.00;;;;;;5049770;28;20731;-54
2024/03/10 09:25:12;;;;;;;0.90;0.50;;;12.50;1.00;;;;;;5055875;28;20421;-52
2024/03/10 09:27:43;;;;;;;0.70;0.40;;;12.70;1.00;;;;;;5051830;28;20803;-54
2024/03/10 09:30:13;;;;;;;1.08;0.50;;;12.80;1.00;;;;;;5052226;28;20827;-54
2024/03/10 09:32:42;;;;;;;1.30;0.40;;;12.70;1.00;;;;;;5051610;28;20431;-54
2024/03/10 09:35:10;;;;;;;1.10;0.40;;;12.50;1.00;;;;;;5041725;28;20435;-54
2024/03/10 09:37:39;;;;;;;0.82;0.50;;;12.60;1.00;;;;;;5049598;28;20437;-53
2024/03/10 09:40:11;;;;;;;0.90;0.50;;;12.70;1.00;;;;;;5043414;28;20795;-56
2024/03/10 09:42:38;;;;;;;0.90;0.50;;;12.50;1.00;;;;;;5051380;28;20452;-54
2024/03/10 09:45:15;;;;;;;0.90;0.50;;;12.40;1.00;;;;;;5054450;28;20500;-56
2024/03/10 09:47:48;;;;;;;0.80;0.50;;;12.30;1.00;;;;;;5055100;28;20421;-56
2024/03/10 09:50:22;;;;;;;0.70;0.40;;;12.40;1.00;;;;;;5048134;28;20473;-56
2024/03/10 09:52:52;;;;;;;0.90;0.50;;;12.60;1.00;;;;;;5035472;28;20448;-53
2024/03/10 09:55:20;;;;;;;0.60;0.40;;;12.60;1.00;;;;;;5040695;28;20533;-51
2024/03/10 09:57:53;;;;;;;0.75;0.40;;;12.60;1.00;;;;;;5050299;28;20538;-54
2024/03/10 10:00:23;;;;;;;0.80;0.40;;;12.70;1.00;;;;;;5051638;28;20425;-54
2024/03/10 10:02:58;;;;;;;0.90;0.40;;;13.00;1.00;;;;;;5052582;28;20855;-52
2024/03/10 10:05:29;;;;;;;0.70;0.40;;;13.20;1.00;;;;;;5052911;28;20520;-51
2024/03/10 10:07:57;;;;;;;0.70;0.40;;;13.30;1.00;;;;;;5053575;28;20433;-55
2024/03/10 10:10:26;;;;;;;0.60;0.40;;;13.20;1.00;;;;;;5053164;28;20421;-55
2024/03/10 10:12:56;;;;;;;0.70;0.40;;;12.80;1.00;;;;;;5051496;28;20725;-54
2024/03/10 10:15:33;;;;;;;0.80;0.40;;;12.70;1.00;;;;;;5051909;28;20456;-54
2024/03/10 10:18:02;;;;;;;0.65;0.40;;;12.60;1.00;;;;;;5044577;28;20500;-55
2024/03/10 10:20:29;;;;;;;0.77;0.45;;;12.70;1.00;;;;;;5047567;28;20437;-56
2024/03/10 10:22:56;;;;;;;0.70;0.40;;;12.90;1.00;;;;;;5033332;28;20488;-56
2024/03/10 10:25:23;;;;;;;0.90;0.40;;;13.00;1.00;;;;;;5038702;28;20464;-53
2024/03/10 10:27:52;;;;;;;0.60;0.40;;;13.20;1.00;;;;;;5041205;28;20531;-54
2024/03/10 10:30:22;;;;;;;0.80;0.40;;;13.40;1.00;;;;;;5034343;28;20480;-56
2024/03/10 10:32:50;;;;;;;0.70;0.40;;;13.20;1.00;;;;;;5052754;28;20452;-54
2024/03/10 10:35:18;;;;;;;0.73;0.40;;;13.30;1.00;;;;;;5055191;28;20503;-56
2024/03/10 10:37:48;;;;;;;0.70;0.50;;;13.30;1.00;;;;;;5054088;28;20436;-56
2024/03/10 10:40:16;;;;;;;0.80;0.40;;;13.40;1.00;;;;;;5054369;28;20775;-54
2024/03/10 10:42:43;;;;;;;0.80;0.40;;;13.50;1.00;;;;;;5054611;28;20831;-53
2024/03/10 10:45:10;;;;;;;0.68;0.40;;;13.70;1.00;;;;;;5061162;28;20527;-55
2024/03/10 10:47:40;;;;;;;0.90;0.50;;;13.60;1.00;;;;;;5057965;28;20421;-55
2024/03/10 10:50:14;;;;;;;0.80;0.50;;;13.50;1.00;;;;;;5056703;28;20452;-53
2024/03/10 10:52:50;;;;;;;0.70;0.40;;;13.40;1.00;;;;;;5057227;28;20527;-52
2024/03/10 10:55:19;;;;;;;0.60;0.40;;;13.20;1.00;;;;;;5057064;28;20790;-51
2024/03/10 10:57:47;;;;;;;0.70;0.40;;;13.40;1.00;;;;;;5058108;28;20443;-53
2024/03/10 11:00:35;;;;;;;0.80;0.40;;;13.60;1.00;;;;;;5057271;28;20437;-50
2024/03/10 11:03:13;;;;;;;0.85;0.50;;;13.60;1.00;;;;;;5050688;28;20499;-54
2024/03/10 11:05:41;;;;;;;0.90;0.40;;;13.80;1.00;;;;;;5057405;28;20431;-55
2024/03/10 11:08:13;;;;;;;0.70;0.40;;;14.00;1.00;;;;;;5055242;28;20712;-51
2024/03/10 11:10:42;;;;;;;0.80;0.40;;;14.00;1.00;;;;;;5056056;28;20429;-54
2024/03/10 11:13:11;;;;;;;1.10;0.50;;;14.00;1.00;;;;;;5057589;28;20447;-53
2024/03/10 11:15:38;;;;;;;1.10;0.40;;;14.00;1.00;;;;;;5056662;28;20443;-53
2024/03/10 11:18:21;;;;;;;0.90;0.40;;;14.00;1.00;;;;;;5057769;28;20441;-54
2024/03/10 11:20:49;;;;;;;0.80;0.40;;;14.10;1.00;;;;;;5057965;28;20429;-54
2024/03/10 11:23:27;;;;;;;0.70;0.47;;;14.10;1.00;;;;;;5056454;28;20516;-54
2024/03/10 11:25:53;;;;;;;0.70;0.50;;;14.10;1.00;;;;;;5057353;28;20523;-54
2024/03/10 11:28:25;;;;;;;1.00;0.50;;;14.20;1.00;;;;;;5045433;28;20525;-53
2024/03/10 11:30:56;;;;;;;1.10;0.40;;;14.10;1.00;;;;;;5055335;28;20413;-54
2024/03/10 11:33:24;;;;;;;0.80;0.50;;;14.00;1.00;;;;;;5057020;28;20681;-52
2024/03/10 11:35:52;;;;;;;0.80;0.40;;;14.00;1.00;;;;;;5055537;28;20534;-55
2024/03/10 11:38:21;;;;;;;0.65;0.43;;;14.00;1.00;;;;;;5048016;28;20443;-55
2024/03/10 11:40:58;;;;;;;0.73;0.50;;;13.80;1.00;;;;;;5056989;28;20703;-55
2024/03/10 11:43:26;;;;;;;0.70;0.50;;;13.90;1.00;;;;;;5037031;28;20500;-52
2024/03/10 11:45:54;;;;;;;0.70;0.40;;;14.10;1.00;;;;;;5035332;28;20675;-53
2024/03/10 11:48:27;;;;;;;0.93;0.40;;;14.00;1.00;;;;;;5036535;28;20429;-56
2024/03/10 11:50:55;;;;;;;0.60;0.32;;;14.00;1.00;;;;;;5039977;28;20441;-53
2024/03/10 11:53:26;;;;;;;0.70;0.40;;;14.10;1.00;;;;;;5055982;28;20843;-58
2024/03/10 11:56:00;;;;;;;0.70;0.40;;;14.20;1.00;;;;;;5056582;28;20441;-57
2024/03/10 11:58:28;;;;;;;0.70;0.40;;;14.30;1.00;;;;;;5053365;28;20509;-55
2024/03/10 12:00:55;;;;;;;0.70;0.40;;;14.40;1.00;;;;;;5055927;28;20429;-55
2024/03/10 12:03:23;;;;;;;0.88;0.50;;;14.10;1.00;;;;;;5056824;28;20761;-59
2024/03/10 12:05:50;;;;;;;0.70;0.40;;;13.90;1.00;;;;;;5055746;28;20512;-54
2024/03/10 12:08:19;;;;;;;0.77;0.47;;;14.00;1.00;;;;;;5048904;28;20846;-55
2024/03/10 12:10:47;;;;;;;0.70;0.45;;;14.00;1.00;;;;;;5055860;28;20437;-54
2024/03/10 12:13:22;;;;;;;0.80;0.47;;;14.00;1.00;;;;;;5055982;28;20865;-52
2024/03/10 12:15:52;;;;;;;0.80;0.40;;;14.10;1.00;;;;;;5055333;28;20895;-51
2024/03/10 12:18:21;;;;;;;1.00;0.50;;;14.10;1.00;;;;;;5053943;28;20515;-54
2024/03/10 12:20:50;;;;;;;1.40;0.50;;;14.10;1.00;;;;;;5050710;28;20600;-54
2024/03/10 12:23:18;;;;;;;0.90;0.40;;;14.00;1.00;;;;;;5050553;28;20855;-54
2024/03/10 12:25:46;;;;;;;0.70;0.40;;;14.10;1.00;;;;;;5053983;28;20503;-54
2024/03/10 12:28:14;;;;;;;0.70;0.40;;;14.30;1.00;;;;;;5057609;28;20427;-53
2024/03/10 12:30:43;;;;;;;0.80;0.40;;;14.40;1.00;;;;;;5051487;28;21098;-55
2024/03/10 12:33:14;;;;;;;0.60;0.40;;;14.40;1.00;;;;;;5054960;28;20425;-52
2024/03/10 12:35:42;;;;;;;0.68;0.40;;;14.40;1.00;;;;;;5056031;28;20447;-55
2024/03/10 12:38:13;;;;;;;0.97;0.40;;;14.30;1.00;;;;;;5054911;28;20700;-52
2024/03/10 12:40:41;;;;;;;0.70;0.40;;;14.20;1.00;;;;;;5053013;28;20823;-56
2024/03/10 12:43:11;;;;;;;0.70;0.40;;;14.20;1.00;;;;;;5055006;28;20421;-53
2024/03/10 12:45:38;;;;;;;0.70;0.40;;;14.30;1.00;;;;;;5044617;28;20454;-52
2024/03/10 12:48:08;;;;;;;0.90;0.38;;;14.40;1.00;;;;;;5036466;28;20431;-52
2024/03/10 12:50:35;;;;;;;1.35;0.50;;;14.20;1.00;;;;;;5035161;28;20434;-56
2024/03/10 12:53:03;;;;;;;0.50;0.38;;;14.30;1.00;;;;;;5035204;28;20441;-54
2024/03/10 12:55:33;;;;;;;0.80;0.40;;;14.30;1.00;;;;;;5016932;28;20433;-55
2024/03/10 12:58:01;;;;;;;0.70;0.47;;;14.40;1.00;;;;;;5042140;28;20446;-54
2024/03/10 13:00:30;;;;;;;0.68;0.40;;;14.50;1.00;;;;;;5027538;28;20439;-53
2024/03/10 13:03:00;;;;;;;0.75;0.40;;;14.40;1.00;;;;;;5034984;28;20434;-52
2024/03/10 13:05:28;;;;;;;0.85;0.40;;;14.40;1.00;;;;;;5035199;28;20504;-54
2024/03/10 13:07:57;;;;;;;0.88;0.50;;;14.20;1.00;;;;;;5031485;28;20737;-51
2024/03/10 13:10:25;;;;;;;0.70;0.40;;;14.00;1.00;;;;;;5015220;28;20436;-55
2024/03/10 13:12:52;;;;;;;1.15;0.60;;;14.00;1.00;;;;;;5015029;28;20431;-55
2024/03/10 13:15:20;;;;;;;0.70;0.40;;;14.00;1.00;;;;;;5021807;28;20718;-55
2024/03/10 13:17:49;;;;;;;0.70;0.40;;;14.20;1.00;;;;;;5035695;28;20434;-56
2024/03/10 13:20:17;;;;;;;0.80;0.40;;;14.10;1.00;;;;;;5035189;28;20538;-60
2024/03/10 13:22:48;;;;;;;1.10;0.50;;;14.10;1.00;;;;;;5031041;28;20806;-55